Time;durP1;ratioP1;P1;durP2;ratioP2;P2;SDS_P1;SDS_P2;PMS_P1;PMS_P2;Temp;Humidity;BMP_temperature;BMP_pressure;BME280_temperature;BME280_humidity;BME280_pressure;Samples;Min_cycle;Max_cycle;Signal;HPM_P1;HPM_P2
2022/05/17 00:01:39;;;;;;;12.13;6.38;;;;;;;;;;4955472;28;20799;-73
2022/05/17 00:04:04;;;;;;;11.75;6.50;;;;;;;;;;4954072;28;20080;-74
2022/05/17 00:06:30;;;;;;;8.07;5.70;;;;;;;;;;4953657;28;20093;-74
2022/05/17 00:08:57;;;;;;;9.13;5.53;;;;;;;;;;4955874;28;20070;-75
2022/05/17 00:11:24;;;;;;;7.13;5.22;;;;;;;;;;4958276;28;20051;-74
2022/05/17 00:13:49;;;;;;;11.00;5.13;;;;;;;;;;4958304;28;20045;-74
2022/05/17 00:16:17;;;;;;;8.55;5.35;;;;;;;;;;4955264;28;20050;-74
2022/05/17 00:18:42;;;;;;;9.68;5.90;;;;;;;;;;4957146;28;20434;-74
2022/05/17 00:21:08;;;;;;;12.00;6.15;;;;;;;;;;4960712;28;20034;-74
2022/05/17 00:23:36;;;;;;;7.13;5.13;;;;;;;;;;4960317;28;20497;-73
2022/05/17 00:26:03;;;;;;;10.15;5.70;;;;;;;;;;4958273;28;20034;-73
2022/05/17 00:28:28;;;;;;;9.90;5.82;;;;;;;;;;4955265;28;20093;-74
2022/05/17 00:30:54;;;;;;;10.32;6.05;;;;;;;;;;4961890;28;20051;-72
2022/05/17 00:33:21;;;;;;;13.50;6.03;;;;;;;;;;4958806;28;20043;-74
2022/05/17 00:35:47;;;;;;;10.65;5.80;;;;;;;;;;4956782;28;20043;-73
2022/05/17 00:38:14;;;;;;;8.32;5.30;;;;;;;;;;4956325;28;20070;-75
2022/05/17 00:40:40;;;;;;;11.85;5.63;;;;;;;;;;4957630;28;21141;-74
2022/05/17 00:43:08;;;;;;;12.95;6.28;;;;;;;;;;4957182;28;20201;-73
2022/05/17 00:45:34;;;;;;;12.25;5.88;;;;;;;;;;4957282;28;20182;-74
2022/05/17 00:48:08;;;;;;;10.02;5.82;;;;;;;;;;4957985;28;20035;-74
2022/05/17 00:50:43;;;;;;;7.53;5.75;;;;;;;;;;4955933;28;20054;-74
2022/05/17 00:53:19;;;;;;;7.55;5.80;;;;;;;;;;4959059;28;20116;-74
2022/05/17 00:56:12;;;;;;;7.60;5.40;;;;;;;;;;4957416;28;20618;-74
2022/05/17 00:58:51;;;;;;;9.75;5.45;;;;;;;;;;4949868;28;20558;-74
2022/05/17 01:01:23;;;;;;;9.98;5.55;;;;;;;;;;4960463;28;20121;-75
2022/05/17 01:04:08;;;;;;;10.27;5.77;;;;;;;;;;4956608;28;20042;-76
2022/05/17 01:06:38;;;;;;;11.02;5.60;;;;;;;;;;4955224;28;20324;-76
2022/05/17 01:09:04;;;;;;;12.20;5.88;;;;;;;;;;4955550;28;20038;-76
2022/05/17 01:11:31;;;;;;;8.32;5.90;;;;;;;;;;4957994;28;21234;-75
2022/05/17 01:16:41;;;;;;;13.13;5.68;;;;;;;;;;4958637;28;22761;-75
2022/05/17 01:19:08;;;;;;;8.30;5.30;;;;;;;;;;4956973;28;20038;-75
2022/05/17 01:21:34;;;;;;;9.90;5.82;;;;;;;;;;4955482;28;20502;-75
2022/05/17 01:23:59;;;;;;;9.73;5.63;;;;;;;;;;4956224;28;20651;-76
2022/05/17 01:26:26;;;;;;;8.32;6.15;;;;;;;;;;4958451;28;20494;-77
2022/05/17 01:28:52;;;;;;;9.00;5.75;;;;;;;;;;4957620;28;20050;-76
2022/05/17 01:31:18;;;;;;;9.10;5.53;;;;;;;;;;4958837;28;20085;-76
2022/05/17 01:33:44;;;;;;;9.02;5.85;;;;;;;;;;4959012;28;20123;-75
2022/05/17 01:36:12;;;;;;;8.88;5.72;;;;;;;;;;4958864;28;20834;-77
2022/05/17 01:38:38;;;;;;;6.50;5.60;;;;;;;;;;4957630;28;20035;-75
2022/05/17 01:41:04;;;;;;;8.43;5.75;;;;;;;;;;4957423;28;20070;-76
2022/05/17 01:43:30;;;;;;;11.63;6.65;;;;;;;;;;4958016;28;20795;-75
2022/05/17 01:45:55;;;;;;;10.55;5.15;;;;;;;;;;4957369;28;20609;-74
2022/05/17 01:48:21;;;;;;;7.55;5.63;;;;;;;;;;4955198;28;20474;-76
2022/05/17 01:50:46;;;;;;;9.30;5.30;;;;;;;;;;4958400;28;20435;-75
2022/05/17 01:53:11;;;;;;;8.10;5.55;;;;;;;;;;4954740;28;20093;-77
2022/05/17 01:55:37;;;;;;;9.18;5.38;;;;;;;;;;4956356;28;20138;-76
2022/05/17 01:58:04;;;;;;;9.63;5.28;;;;;;;;;;4959076;28;20085;-75
2022/05/17 02:00:30;;;;;;;8.35;5.20;;;;;;;;;;4957238;28;21056;-76
2022/05/17 02:02:56;;;;;;;7.15;5.18;;;;;;;;;;4958926;28;20498;-76
2022/05/17 02:05:24;;;;;;;10.02;5.78;;;;;;;;;;4960816;28;20507;-76
2022/05/17 02:07:50;;;;;;;8.27;5.63;;;;;;;;;;4956277;28;20046;-75
2022/05/17 02:10:20;;;;;;;8.38;5.45;;;;;;;;;;4958894;28;20447;-74
2022/05/17 02:12:45;;;;;;;7.55;5.22;;;;;;;;;;4941716;28;22355;-73
2022/05/17 02:15:11;;;;;;;11.88;5.85;;;;;;;;;;4958310;28;20038;-71
2022/05/17 02:17:38;;;;;;;10.43;5.30;;;;;;;;;;4961627;28;20030;-74
2022/05/17 02:20:05;;;;;;;7.18;5.25;;;;;;;;;;4956648;28;20043;-73
2022/05/17 02:22:32;;;;;;;7.78;5.07;;;;;;;;;;4955991;28;20042;-73
2022/05/17 02:24:57;;;;;;;7.28;4.60;;;;;;;;;;4955836;28;20413;-73
2022/05/17 02:27:23;;;;;;;7.85;5.03;;;;;;;;;;4955391;28;20038;-74
2022/05/17 02:29:48;;;;;;;6.68;4.60;;;;;;;;;;4956511;28;20073;-76
2022/05/17 02:32:14;;;;;;;6.65;4.40;;;;;;;;;;4954729;28;20038;-76
2022/05/17 02:34:41;;;;;;;8.35;4.82;;;;;;;;;;4958158;28;20042;-76
2022/05/17 02:37:06;;;;;;;7.32;4.22;;;;;;;;;;4960901;28;20048;-75
2022/05/17 02:39:32;;;;;;;7.05;4.47;;;;;;;;;;4955725;28;20047;-77
2022/05/17 02:41:58;;;;;;;9.32;4.47;;;;;;;;;;4958805;28;20077;-75
2022/05/17 02:44:23;;;;;;;5.97;4.28;;;;;;;;;;4959926;28;20407;-74
2022/05/17 02:46:49;;;;;;;9.30;4.65;;;;;;;;;;4956670;28;20070;-75
2022/05/17 02:49:14;;;;;;;7.20;4.30;;;;;;;;;;4971802;28;20137;-76
2022/05/17 02:51:40;;;;;;;8.90;4.30;;;;;;;;;;4955613;28;20081;-75
2022/05/17 02:54:07;;;;;;;6.05;4.72;;;;;;;;;;4955682;28;20061;-77
2022/05/17 02:56:33;;;;;;;7.22;4.28;;;;;;;;;;4957818;28;20571;-76
2022/05/17 02:58:59;;;;;;;9.15;4.70;;;;;;;;;;4956245;28;20138;-75
2022/05/17 03:01:24;;;;;;;10.60;4.18;;;;;;;;;;4957708;28;20612;-75
2022/05/17 03:03:49;;;;;;;7.55;4.30;;;;;;;;;;4956972;28;20050;-77
2022/05/17 03:06:15;;;;;;;10.30;4.20;;;;;;;;;;4957517;28;20420;-77
2022/05/17 03:08:40;;;;;;;8.15;4.45;;;;;;;;;;4957557;28;20643;-77
2022/05/17 03:11:06;;;;;;;8.23;4.57;;;;;;;;;;4953756;28;20548;-75
2022/05/17 03:13:33;;;;;;;8.75;4.00;;;;;;;;;;4956741;28;20566;-75
2022/05/17 03:15:58;;;;;;;6.07;4.40;;;;;;;;;;4954849;28;20042;-75
2022/05/17 03:18:24;;;;;;;5.85;4.40;;;;;;;;;;4956990;28;20097;-76
2022/05/17 03:20:49;;;;;;;6.90;4.43;;;;;;;;;;4954155;28;22776;-76
2022/05/17 03:23:15;;;;;;;9.18;4.22;;;;;;;;;;4955581;28;20070;-76
2022/05/17 03:25:40;;;;;;;7.28;4.30;;;;;;;;;;4957004;28;20035;-76
2022/05/17 03:28:06;;;;;;;7.15;4.15;;;;;;;;;;4957864;28;20142;-77
2022/05/17 03:30:32;;;;;;;8.20;4.53;;;;;;;;;;4954503;28;20035;-76
2022/05/17 03:32:58;;;;;;;6.63;4.60;;;;;;;;;;4958548;28;20034;-75
2022/05/17 03:35:24;;;;;;;9.45;4.38;;;;;;;;;;4957607;28;23082;-76
2022/05/17 03:37:50;;;;;;;5.63;4.47;;;;;;;;;;4956348;28;20085;-76
2022/05/17 03:40:16;;;;;;;6.13;4.90;;;;;;;;;;4957392;28;20042;-76
2022/05/17 03:42:42;;;;;;;10.73;5.70;;;;;;;;;;4960650;28;20047;-75
2022/05/17 03:45:08;;;;;;;7.57;4.53;;;;;;;;;;4960218;28;20026;-74
2022/05/17 03:47:33;;;;;;;5.88;4.07;;;;;;;;;;4960135;28;20031;-77
2022/05/17 03:49:59;;;;;;;8.38;4.43;;;;;;;;;;4959773;28;20153;-74
2022/05/17 03:52:26;;;;;;;9.27;4.35;;;;;;;;;;4959701;28;20553;-74
2022/05/17 03:54:56;;;;;;;6.60;4.20;;;;;;;;;;4958136;28;20869;-76
2022/05/17 03:57:22;;;;;;;5.03;4.28;;;;;;;;;;4959782;28;20041;-76
2022/05/17 03:59:48;;;;;;;6.65;4.40;;;;;;;;;;4959642;28;20077;-76
2022/05/17 04:02:14;;;;;;;6.97;4.22;;;;;;;;;;4958541;28;20540;-76
2022/05/17 04:04:39;;;;;;;7.15;4.15;;;;;;;;;;4960901;28;20042;-76
2022/05/17 04:07:05;;;;;;;5.05;4.13;;;;;;;;;;4959919;28;20038;-75
2022/05/17 04:09:30;;;;;;;5.50;3.97;;;;;;;;;;4966019;28;20125;-76
2022/05/17 04:11:56;;;;;;;9.50;4.43;;;;;;;;;;4960468;28;20061;-76
2022/05/17 04:14:22;;;;;;;11.75;6.00;;;;;;;;;;4961922;28;20038;-76
2022/05/17 04:16:47;;;;;;;11.65;6.45;;;;;;;;;;4955780;28;20042;-76
2022/05/17 04:19:15;;;;;;;15.10;9.00;;;;;;;;;;4961973;28;20173;-76
2022/05/17 04:21:42;;;;;;;13.85;8.20;;;;;;;;;;4959816;28;20096;-76
2022/05/17 04:24:08;;;;;;;12.98;8.82;;;;;;;;;;4962367;28;20049;-77
2022/05/17 04:26:33;;;;;;;13.73;8.30;;;;;;;;;;4958572;28;20034;-76
2022/05/17 04:28:59;;;;;;;15.20;7.90;;;;;;;;;;4957032;28;20034;-75
2022/05/17 04:31:24;;;;;;;12.77;8.50;;;;;;;;;;4958272;28;20046;-76
2022/05/17 04:33:50;;;;;;;11.48;7.50;;;;;;;;;;4959213;28;20578;-76
2022/05/17 04:36:15;;;;;;;11.30;6.40;;;;;;;;;;4957301;28;20062;-75
2022/05/17 04:38:41;;;;;;;13.48;6.13;;;;;;;;;;4960670;28;20049;-76
2022/05/17 04:41:06;;;;;;;8.98;5.22;;;;;;;;;;4958212;28;20042;-75
2022/05/17 04:43:32;;;;;;;10.80;5.40;;;;;;;;;;4957800;28;20043;-75
2022/05/17 04:45:57;;;;;;;6.63;5.18;;;;;;;;;;4957382;28;20053;-75
2022/05/17 04:48:24;;;;;;;7.25;5.10;;;;;;;;;;4972957;28;21430;-75
2022/05/17 04:50:51;;;;;;;8.13;4.93;;;;;;;;;;4957239;28;20039;-77
2022/05/17 04:53:16;;;;;;;10.57;4.38;;;;;;;;;;4956583;28;20065;-77
2022/05/17 04:55:41;;;;;;;6.22;4.50;;;;;;;;;;4955421;28;20116;-74
2022/05/17 04:58:07;;;;;;;11.50;4.85;;;;;;;;;;4959285;28;20096;-75
2022/05/17 05:00:33;;;;;;;11.35;4.93;;;;;;;;;;4957943;28;20050;-74
2022/05/17 05:02:58;;;;;;;10.10;4.70;;;;;;;;;;4959852;28;20088;-76
2022/05/17 05:05:24;;;;;;;10.80;4.80;;;;;;;;;;4956399;28;20047;-76
2022/05/17 05:07:50;;;;;;;8.52;4.72;;;;;;;;;;4958403;28;20614;-75
2022/05/17 05:10:16;;;;;;;7.30;5.00;;;;;;;;;;4955181;28;20630;-75
2022/05/17 05:12:42;;;;;;;9.30;4.90;;;;;;;;;;4971155;28;20046;-76
2022/05/17 05:15:08;;;;;;;9.23;5.78;;;;;;;;;;4958518;28;20037;-77
2022/05/17 05:17:35;;;;;;;10.48;5.68;;;;;;;;;;4960873;28;20117;-76
2022/05/17 05:20:02;;;;;;;10.95;6.63;;;;;;;;;;4959589;28;20044;-75
2022/05/17 05:22:30;;;;;;;10.57;6.25;;;;;;;;;;4960195;28;20042;-76
2022/05/17 05:24:56;;;;;;;11.88;6.85;;;;;;;;;;4959919;28;20043;-76
2022/05/17 05:27:22;;;;;;;10.20;6.35;;;;;;;;;;4958954;28;20049;-76
2022/05/17 05:29:47;;;;;;;12.40;6.78;;;;;;;;;;4957183;28;20689;-74
2022/05/17 05:32:13;;;;;;;8.25;6.90;;;;;;;;;;4973000;28;20050;-75
2022/05/17 05:34:38;;;;;;;11.27;8.10;;;;;;;;;;4960042;28;20053;-74
2022/05/17 05:37:04;;;;;;;12.88;7.47;;;;;;;;;;4962995;28;20165;-75
2022/05/17 05:39:30;;;;;;;12.18;7.80;;;;;;;;;;4959526;28;20386;-74
2022/05/17 05:41:55;;;;;;;13.70;8.85;;;;;;;;;;4959216;28;20030;-76
2022/05/17 05:44:21;;;;;;;8.95;8.00;;;;;;;;;;4957809;28;21619;-77
2022/05/17 05:46:46;;;;;;;21.98;8.60;;;;;;;;;;4957418;28;20045;-75
2022/05/17 05:49:12;;;;;;;17.60;8.48;;;;;;;;;;4958932;28;20042;-75
2022/05/17 05:51:37;;;;;;;10.13;8.27;;;;;;;;;;4962053;28;20502;-75
2022/05/17 05:54:03;;;;;;;12.65;8.10;;;;;;;;;;4958211;28;20066;-76
2022/05/17 05:56:28;;;;;;;12.82;8.23;;;;;;;;;;4960139;28;20121;-75
2022/05/17 05:58:54;;;;;;;13.43;7.97;;;;;;;;;;4961776;28;20082;-75
2022/05/17 06:01:20;;;;;;;12.48;7.75;;;;;;;;;;4955816;28;20038;-75
2022/05/17 06:03:46;;;;;;;13.10;8.30;;;;;;;;;;4959268;28;20045;-75
2022/05/17 06:06:12;;;;;;;12.02;7.80;;;;;;;;;;4958686;28;20114;-74
2022/05/17 06:08:38;;;;;;;9.77;7.75;;;;;;;;;;4958089;28;20061;-76
2022/05/17 06:11:04;;;;;;;9.73;6.90;;;;;;;;;;4957427;28;20121;-75
2022/05/17 06:13:30;;;;;;;12.07;7.40;;;;;;;;;;4973305;28;20055;-76
2022/05/17 06:15:55;;;;;;;14.13;7.85;;;;;;;;;;4973250;28;20069;-75
2022/05/17 06:18:21;;;;;;;11.30;8.00;;;;;;;;;;4962102;28;20457;-76
2022/05/17 06:20:51;;;;;;;14.60;7.32;;;;;;;;;;4965179;28;20247;-75
2022/05/17 06:23:18;;;;;;;11.50;7.50;;;;;;;;;;4960878;28;20043;-76
2022/05/17 06:25:44;;;;;;;11.43;7.07;;;;;;;;;;4960866;28;20049;-74
2022/05/17 06:28:10;;;;;;;9.30;6.30;;;;;;;;;;4958246;28;20678;-74
2022/05/17 06:30:35;;;;;;;9.50;5.97;;;;;;;;;;4959508;28;20038;-76
2022/05/17 06:33:01;;;;;;;13.02;5.38;;;;;;;;;;4956790;28;20084;-75
2022/05/17 06:35:27;;;;;;;7.47;5.35;;;;;;;;;;4963848;28;20394;-74
2022/05/17 06:37:53;;;;;;;7.28;4.60;;;;;;;;;;4957413;28;20065;-74
2022/05/17 06:40:18;;;;;;;6.38;4.72;;;;;;;;;;4957591;28;20539;-74
2022/05/17 06:42:44;;;;;;;10.48;4.75;;;;;;;;;;4958228;28;20144;-75
2022/05/17 06:45:11;;;;;;;7.10;4.25;;;;;;;;;;4956587;28;20030;-75
2022/05/17 06:47:37;;;;;;;5.95;4.40;;;;;;;;;;4957395;28;20482;-76
2022/05/17 06:50:02;;;;;;;11.93;4.63;;;;;;;;;;4955739;28;20047;-75
2022/05/17 06:52:28;;;;;;;6.93;4.30;;;;;;;;;;4956954;28;20062;-75
2022/05/17 06:54:55;;;;;;;4.65;3.72;;;;;;;;;;4955296;28;20050;-75
2022/05/17 06:57:21;;;;;;;7.93;4.78;;;;;;;;;;4954296;28;20451;-75
2022/05/17 06:59:47;;;;;;;6.90;4.95;;;;;;;;;;4956979;28;20026;-75
2022/05/17 07:02:13;;;;;;;10.20;5.65;;;;;;;;;;4954926;28;20054;-73
2022/05/17 07:04:39;;;;;;;9.07;4.55;;;;;;;;;;4956451;28;22836;-76
2022/05/17 07:07:06;;;;;;;9.27;5.25;;;;;;;;;;4958248;28;20632;-75
2022/05/17 07:09:32;;;;;;;10.93;5.40;;;;;;;;;;4954162;28;21667;-74
2022/05/17 07:14:45;;;;;;;12.32;4.57;;;;;;;;;;4958611;28;20806;-74
2022/05/17 07:17:16;;;;;;;11.27;4.95;;;;;;;;;;4957270;28;20730;-75
2022/05/17 07:19:42;;;;;;;10.90;5.80;;;;;;;;;;4958578;28;20046;-76
2022/05/17 07:22:08;;;;;;;9.23;4.63;;;;;;;;;;4956115;28;20510;-76
2022/05/17 07:24:36;;;;;;;7.72;4.47;;;;;;;;;;4957017;28;20038;-75
2022/05/17 07:27:02;;;;;;;6.00;4.10;;;;;;;;;;4955168;28;20098;-75
2022/05/17 07:29:28;;;;;;;6.75;4.18;;;;;;;;;;4956860;28;20038;-75
2022/05/17 07:31:54;;;;;;;8.88;3.78;;;;;;;;;;4956171;28;20372;-75
2022/05/17 07:34:19;;;;;;;4.68;3.80;;;;;;;;;;4959271;28;20046;-74
2022/05/17 07:36:45;;;;;;;7.35;3.42;;;;;;;;;;4958859;28;20049;-75
2022/05/17 07:39:11;;;;;;;8.43;3.63;;;;;;;;;;4957326;28;20034;-75
2022/05/17 07:41:37;;;;;;;10.55;3.70;;;;;;;;;;4957649;28;20066;-75
2022/05/17 07:44:03;;;;;;;6.97;3.53;;;;;;;;;;4957415;28;20137;-75
2022/05/17 07:46:29;;;;;;;5.32;2.90;;;;;;;;;;4957740;28;21912;-76
2022/05/17 07:48:55;;;;;;;7.25;3.58;;;;;;;;;;4956376;28;20439;-75
2022/05/17 07:51:20;;;;;;;5.13;3.15;;;;;;;;;;4954642;28;20043;-75
2022/05/17 07:53:46;;;;;;;8.85;3.13;;;;;;;;;;4955746;28;20468;-76
2022/05/17 07:56:13;;;;;;;8.07;3.35;;;;;;;;;;4956338;28;20074;-76
2022/05/17 07:58:38;;;;;;;6.65;2.65;;;;;;;;;;4955967;28;20070;-76
2022/05/17 08:01:07;;;;;;;7.60;3.38;;;;;;;;;;4955946;28;20058;-75
2022/05/17 08:03:32;;;;;;;7.60;3.05;;;;;;;;;;4960017;28;20266;-74
2022/05/17 08:05:58;;;;;;;7.88;2.85;;;;;;;;;;4955925;28;20467;-74
2022/05/17 08:08:23;;;;;;;8.70;3.58;;;;;;;;;;4955757;28;20046;-75
2022/05/17 08:10:50;;;;;;;6.50;3.42;;;;;;;;;;4957639;28;20061;-74
2022/05/17 08:13:16;;;;;;;9.45;3.30;;;;;;;;;;4958674;28;20034;-76
2022/05/17 08:15:43;;;;;;;7.63;2.90;;;;;;;;;;4957479;28;20102;-74
2022/05/17 08:18:09;;;;;;;7.82;3.53;;;;;;;;;;4972600;28;20092;-74
2022/05/17 08:20:35;;;;;;;8.25;3.30;;;;;;;;;;4957472;28;20148;-74
2022/05/17 08:23:01;;;;;;;6.57;3.10;;;;;;;;;;4956255;28;20043;-73
2022/05/17 08:28:11;;;;;;;8.38;3.83;;;;;;;;;;4955243;28;20513;-76
2022/05/17 08:30:37;;;;;;;8.63;3.45;;;;;;;;;;4959484;28;20043;-75
2022/05/17 08:33:15;;;;;;;8.80;4.47;;;;;;;;;;4960902;28;20038;-75
2022/05/17 08:35:52;;;;;;;10.73;4.10;;;;;;;;;;4960379;28;20433;-74
2022/05/17 08:38:48;;;;;;;10.57;3.88;;;;;;;;;;4959613;28;20045;-75
2022/05/17 08:41:13;;;;;;;9.93;3.30;;;;;;;;;;4962701;28;20077;-75
2022/05/17 08:44:10;;;;;;;7.63;3.53;;;;;;;;;;4960830;28;20078;-75
2022/05/17 08:46:54;;;;;;;12.27;3.33;;;;;;;;;;4959170;28;20042;-75
2022/05/17 08:49:36;;;;;;;6.97;2.97;;;;;;;;;;4958667;28;20088;-75
2022/05/17 08:52:10;;;;;;;7.18;2.90;;;;;;;;;;4959159;28;20070;-74
2022/05/17 08:54:51;;;;;;;9.00;2.83;;;;;;;;;;4972362;28;20150;-74
2022/05/17 08:57:37;;;;;;;10.63;3.08;;;;;;;;;;4957833;28;20035;-75
2022/05/17 09:00:13;;;;;;;6.78;2.33;;;;;;;;;;4958080;28;20050;-75
2022/05/17 09:02:49;;;;;;;8.32;3.20;;;;;;;;;;4961485;28;20076;-76
2022/05/17 09:05:30;;;;;;;5.35;2.50;;;;;;;;;;4961131;28;20462;-76
2022/05/17 09:08:28;;;;;;;7.85;2.65;;;;;;;;;;4960426;28;20620;-76
2022/05/17 09:11:05;;;;;;;5.60;2.72;;;;;;;;;;4958712;28;20046;-73
2022/05/17 09:14:02;;;;;;;9.30;3.45;;;;;;;;;;4963223;28;20027;-75
2022/05/17 09:16:33;;;;;;;6.95;2.75;;;;;;;;;;4955059;28;20465;-75
2022/05/17 09:18:59;;;;;;;9.93;2.97;;;;;;;;;;4965150;28;20379;-75
2022/05/17 09:21:42;;;;;;;6.38;2.53;;;;;;;;;;4961554;28;20042;-75
2022/05/17 09:24:13;;;;;;;10.32;3.05;;;;;;;;;;4958291;28;20069;-74
2022/05/17 09:26:40;;;;;;;8.05;2.78;;;;;;;;;;4961303;28;20026;-76
2022/05/17 09:29:17;;;;;;;5.45;2.30;;;;;;;;;;4960383;28;22811;-76
2022/05/17 09:31:51;;;;;;;6.82;2.33;;;;;;;;;;4961138;28;20161;-76
2022/05/17 09:34:28;;;;;;;7.88;2.30;;;;;;;;;;4956835;28;20046;-76
2022/05/17 09:36:55;;;;;;;5.45;1.98;;;;;;;;;;4958391;28;20136;-75
2022/05/17 09:39:23;;;;;;;5.50;2.47;;;;;;;;;;4959191;28;20130;-75
2022/05/17 09:41:49;;;;;;;7.05;1.80;;;;;;;;;;4959149;28;20038;-75
2022/05/17 09:44:21;;;;;;;4.78;1.77;;;;;;;;;;4962573;28;20042;-76
2022/05/17 09:46:55;;;;;;;4.03;1.30;;;;;;;;;;4960817;28;20042;-76
2022/05/17 09:52:33;;;;;;;3.45;1.40;;;;;;;;;;4955653;28;20604;-76
2022/05/17 09:55:12;;;;;;;7.50;2.45;;;;;;;;;;4957272;28;20042;-75
2022/05/17 09:57:38;;;;;;;5.53;1.90;;;;;;;;;;4960415;28;20560;-75
2022/05/17 10:00:16;;;;;;;3.78;1.45;;;;;;;;;;4957331;28;20398;-76
2022/05/17 10:03:00;;;;;;;4.88;1.40;;;;;;;;;;4960722;28;20045;-75
2022/05/17 10:05:37;;;;;;;4.63;1.55;;;;;;;;;;4957038;28;20214;-76
2022/05/17 10:08:29;;;;;;;2.67;1.13;;;;;;;;;;4956516;28;20050;-74
2022/05/17 10:11:24;;;;;;;3.40;1.50;;;;;;;;;;4953863;28;20053;-75
2022/05/17 10:13:59;;;;;;;3.88;1.40;;;;;;;;;;4946065;28;20049;-74
2022/05/17 10:16:37;;;;;;;2.75;1.20;;;;;;;;;;4958272;28;20111;-76
2022/05/17 10:19:11;;;;;;;3.55;1.52;;;;;;;;;;4957014;28;20137;-75
2022/05/17 10:21:53;;;;;;;4.82;2.00;;;;;;;;;;4956364;28;20042;-76
2022/05/17 10:24:39;;;;;;;3.55;1.67;;;;;;;;;;4959463;28;20527;-73
2022/05/17 10:27:26;;;;;;;4.72;1.85;;;;;;;;;;4957786;28;20534;-73
2022/05/17 10:29:57;;;;;;;4.55;1.67;;;;;;;;;;4966282;28;20073;-76
2022/05/17 10:32:32;;;;;;;6.25;1.88;;;;;;;;;;4971101;28;20038;-74
2022/05/17 10:35:10;;;;;;;3.42;1.42;;;;;;;;;;4957156;28;20838;-74
2022/05/17 10:37:57;;;;;;;5.22;1.65;;;;;;;;;;4956094;28;20388;-74
2022/05/17 10:40:28;;;;;;;5.40;1.70;;;;;;;;;;4958612;28;20140;-75
2022/05/17 10:42:54;;;;;;;5.80;2.00;;;;;;;;;;4957308;28;20039;-73
2022/05/17 10:45:32;;;;;;;5.35;2.05;;;;;;;;;;4958401;28;20828;-74
2022/05/17 10:48:22;;;;;;;3.80;1.70;;;;;;;;;;4957460;28;20042;-73
2022/05/17 10:51:02;;;;;;;7.00;1.98;;;;;;;;;;4958067;28;20101;-73
2022/05/17 10:53:56;;;;;;;4.32;1.95;;;;;;;;;;4958342;28;20176;-75
2022/05/17 10:56:51;;;;;;;7.32;1.70;;;;;;;;;;4957771;28;20069;-72
2022/05/17 10:59:31;;;;;;;3.95;1.23;;;;;;;;;;4959496;28;20173;-76
2022/05/17 11:02:19;;;;;;;8.30;1.45;;;;;;;;;;4957619;28;20053;-74
2022/05/17 11:04:58;;;;;;;3.08;1.50;;;;;;;;;;4957057;28;20043;-74
2022/05/17 11:07:42;;;;;;;3.78;1.48;;;;;;;;;;4950171;28;20530;-74
2022/05/17 11:10:26;;;;;;;3.92;1.38;;;;;;;;;;4955358;28;20038;-74
2022/05/17 11:13:08;;;;;;;5.45;1.67;;;;;;;;;;4956973;28;20091;-74
2022/05/17 11:15:38;;;;;;;5.40;1.73;;;;;;;;;;4955960;28;20066;-73
2022/05/17 11:18:15;;;;;;;6.97;1.33;;;;;;;;;;4957224;28;20522;-73
2022/05/17 11:20:52;;;;;;;4.03;1.23;;;;;;;;;;4957387;28;20046;-73
2022/05/17 11:23:39;;;;;;;3.72;1.50;;;;;;;;;;4951500;28;20046;-73
2022/05/17 11:26:34;;;;;;;4.57;1.25;;;;;;;;;;4958172;28;20475;-73
2022/05/17 11:29:23;;;;;;;3.80;1.10;;;;;;;;;;4957585;28;20058;-73
2022/05/17 11:31:56;;;;;;;2.60;1.13;;;;;;;;;;4955441;28;20042;-74
2022/05/17 11:34:22;;;;;;;1.27;1.05;;;;;;;;;;4957359;28;21355;-74
2022/05/17 11:36:48;;;;;;;2.88;1.48;;;;;;;;;;4952040;28;20073;-74
2022/05/17 11:39:48;;;;;;;2.13;1.13;;;;;;;;;;4956967;28;20045;-74
2022/05/17 11:42:35;;;;;;;3.35;1.33;;;;;;;;;;4936539;28;20054;-74
2022/05/17 11:45:23;;;;;;;5.43;1.70;;;;;;;;;;4957005;28;20045;-73
2022/05/17 11:47:51;;;;;;;2.05;1.30;;;;;;;;;;4956562;28;20069;-73
2022/05/17 11:50:18;;;;;;;4.32;1.42;;;;;;;;;;4956026;28;20457;-73
2022/05/17 11:52:46;;;;;;;3.05;1.50;;;;;;;;;;4955617;28;20068;-73
2022/05/17 11:55:16;;;;;;;3.80;1.33;;;;;;;;;;4956004;28;20105;-74
2022/05/17 11:58:04;;;;;;;5.50;1.42;;;;;;;;;;4959748;28;20181;-74
2022/05/17 12:00:36;;;;;;;5.25;1.75;;;;;;;;;;4956395;28;23317;-72
2022/05/17 12:03:04;;;;;;;3.15;1.40;;;;;;;;;;4956043;28;20128;-74
2022/05/17 12:05:56;;;;;;;3.53;1.40;;;;;;;;;;4961426;28;20034;-75
2022/05/17 12:08:46;;;;;;;3.47;1.27;;;;;;;;;;4951908;28;20406;-74
2022/05/17 12:11:41;;;;;;;3.72;1.25;;;;;;;;;;4961754;28;20065;-74
2022/05/17 12:14:13;;;;;;;3.45;1.35;;;;;;;;;;4959875;28;20153;-74
2022/05/17 12:16:47;;;;;;;4.55;1.27;;;;;;;;;;4956319;28;20058;-74
2022/05/17 12:19:35;;;;;;;3.17;1.40;;;;;;;;;;4957706;28;20542;-74
2022/05/17 12:22:16;;;;;;;3.50;1.52;;;;;;;;;;4959492;28;20034;-74
2022/05/17 12:24:54;;;;;;;2.40;1.20;;;;;;;;;;4958962;28;20134;-74
2022/05/17 12:27:22;;;;;;;3.13;1.48;;;;;;;;;;4958678;28;20412;-75
2022/05/17 12:33:05;;;;;;;4.30;1.48;;;;;;;;;;4959907;28;20206;-73
2022/05/17 12:35:31;;;;;;;3.47;1.15;;;;;;;;;;4959824;28;20093;-74
2022/05/17 12:37:57;;;;;;;3.03;1.50;;;;;;;;;;4960663;28;20034;-74
2022/05/17 12:43:14;;;;;;;3.35;1.33;;;;;;;;;;4958857;28;20041;-74
2022/05/17 12:45:46;;;;;;;3.10;1.17;;;;;;;;;;4957913;28;20035;-73
2022/05/17 12:48:34;;;;;;;2.30;1.43;;;;;;;;;;4960751;28;20035;-73
2022/05/17 12:51:03;;;;;;;3.40;1.40;;;;;;;;;;4961315;28;20865;-73
2022/05/17 12:53:36;;;;;;;4.25;1.70;;;;;;;;;;4961114;28;20066;-74
2022/05/17 12:56:15;;;;;;;4.95;1.60;;;;;;;;;;4961514;28;20398;-74
2022/05/17 12:59:11;;;;;;;3.03;1.60;;;;;;;;;;4960279;28;20498;-75
2022/05/17 13:01:43;;;;;;;3.92;1.30;;;;;;;;;;4948642;28;20046;-73
2022/05/17 13:04:15;;;;;;;4.40;1.30;;;;;;;;;;4960293;28;20690;-73
2022/05/17 13:06:44;;;;;;;4.63;1.45;;;;;;;;;;4959023;28;20615;-75
2022/05/17 13:09:23;;;;;;;2.97;1.23;;;;;;;;;;4959553;28;20043;-72
2022/05/17 13:11:50;;;;;;;3.95;1.10;;;;;;;;;;4959523;28;20030;-73
2022/05/17 13:14:34;;;;;;;5.32;1.30;;;;;;;;;;4959589;28;21104;-73
2022/05/17 13:17:22;;;;;;;2.90;1.20;;;;;;;;;;4962974;28;20078;-74
2022/05/17 13:19:53;;;;;;;4.18;1.40;;;;;;;;;;4960324;28;20045;-74
2022/05/17 13:22:22;;;;;;;5.30;1.80;;;;;;;;;;4960631;28;20064;-73
2022/05/17 13:24:51;;;;;;;3.25;1.30;;;;;;;;;;4960840;28;20347;-73
2022/05/17 13:27:20;;;;;;;2.53;1.35;;;;;;;;;;4964469;28;20557;-74
2022/05/17 13:29:57;;;;;;;3.15;1.20;;;;;;;;;;4965086;28;20062;-73
2022/05/17 13:32:25;;;;;;;2.30;1.00;;;;;;;;;;4960813;28;20483;-73
2022/05/17 13:35:09;;;;;;;2.97;1.10;;;;;;;;;;4963636;28;20050;-72
2022/05/17 13:37:51;;;;;;;1.95;1.20;;;;;;;;;;4974311;28;20051;-72
2022/05/17 13:40:40;;;;;;;1.83;1.17;;;;;;;;;;4960740;28;20513;-74
2022/05/17 13:43:23;;;;;;;4.45;1.20;;;;;;;;;;4961062;28;20479;-72
2022/05/17 13:46:00;;;;;;;6.78;1.50;;;;;;;;;;4961236;28;20030;-73
2022/05/17 13:48:27;;;;;;;3.17;1.20;;;;;;;;;;4963066;28;20042;-72
2022/05/17 13:50:57;;;;;;;7.15;1.45;;;;;;;;;;4965957;28;20035;-72
2022/05/17 13:53:22;;;;;;;3.35;1.10;;;;;;;;;;4961852;28;20081;-74
2022/05/17 13:55:48;;;;;;;3.95;1.30;;;;;;;;;;4959774;28;20446;-74
2022/05/17 13:58:14;;;;;;;2.45;1.02;;;;;;;;;;4958475;28;20039;-74
2022/05/17 14:01:12;;;;;;;1.40;0.98;;;;;;;;;;4957309;28;20038;-74
2022/05/17 14:03:39;;;;;;;2.88;1.10;;;;;;;;;;4956926;28;20038;-74
2022/05/17 14:06:07;;;;;;;2.80;0.98;;;;;;;;;;4958301;28;20041;-74
2022/05/17 14:11:51;;;;;;;1.73;0.95;;;;;;;;;;4959029;28;20073;-74
2022/05/17 14:14:22;;;;;;;3.97;1.30;;;;;;;;;;4957766;28;20074;-75
2022/05/17 14:16:52;;;;;;;2.83;1.17;;;;;;;;;;4957809;28;20035;-72
2022/05/17 14:19:20;;;;;;;3.08;1.00;;;;;;;;;;4957989;28;21683;-73
2022/05/17 14:21:50;;;;;;;3.42;1.30;;;;;;;;;;4957097;28;20038;-73
2022/05/17 14:24:16;;;;;;;3.17;1.33;;;;;;;;;;4958839;28;20125;-73
2022/05/17 14:26:47;;;;;;;5.68;1.10;;;;;;;;;;4960470;28;20055;-72
2022/05/17 14:29:13;;;;;;;4.70;1.10;;;;;;;;;;4959768;28;20046;-73
2022/05/17 14:31:41;;;;;;;4.10;1.30;;;;;;;;;;4960371;28;20047;-73
2022/05/17 14:34:10;;;;;;;3.35;1.08;;;;;;;;;;4963671;28;20452;-72
2022/05/17 14:36:37;;;;;;;2.40;1.02;;;;;;;;;;4961709;28;20046;-72
2022/05/17 14:39:03;;;;;;;2.75;1.27;;;;;;;;;;4959086;28;20066;-73
2022/05/17 14:41:30;;;;;;;2.33;0.93;;;;;;;;;;4958493;28;20111;-74
2022/05/17 14:43:56;;;;;;;2.78;1.13;;;;;;;;;;4958206;28;20126;-74
2022/05/17 14:46:22;;;;;;;4.18;1.20;;;;;;;;;;4958578;28;20042;-75
2022/05/17 14:48:49;;;;;;;4.00;1.23;;;;;;;;;;4958057;28;20455;-72
2022/05/17 14:51:17;;;;;;;3.05;1.10;;;;;;;;;;4959347;28;21599;-74
2022/05/17 14:53:43;;;;;;;3.03;1.17;;;;;;;;;;4962587;28;20081;-74
2022/05/17 14:56:10;;;;;;;3.03;1.20;;;;;;;;;;4964474;28;20058;-74
2022/05/17 14:58:35;;;;;;;3.63;1.33;;;;;;;;;;4960237;28;20644;-75
2022/05/17 15:01:02;;;;;;;4.25;1.35;;;;;;;;;;4959035;28;20085;-73
2022/05/17 15:03:30;;;;;;;3.05;1.40;;;;;;;;;;4958528;28;20057;-74
2022/05/17 15:05:56;;;;;;;4.57;1.50;;;;;;;;;;4965180;28;20122;-74
2022/05/17 15:08:21;;;;;;;4.55;1.42;;;;;;;;;;4959239;28;20092;-74
2022/05/17 15:10:47;;;;;;;6.20;1.55;;;;;;;;;;4960597;28;20046;-75
2022/05/17 15:13:12;;;;;;;4.72;1.70;;;;;;;;;;4960187;28;21380;-75
2022/05/17 15:15:41;;;;;;;6.70;1.70;;;;;;;;;;4958684;28;20700;-72
2022/05/17 15:18:10;;;;;;;4.47;1.77;;;;;;;;;;4959891;28;20118;-74
2022/05/17 15:20:36;;;;;;;3.55;1.50;;;;;;;;;;4958417;28;20480;-74